createdAt,value
2022-07-26T00:02:20.388Z,100955.47
2022-07-26T00:04:46.936Z,100965.06
2022-07-26T00:07:13.521Z,100958.13
2022-07-26T00:09:43.824Z,100960.34
2022-07-26T00:12:14.314Z,100967.00
2022-07-26T00:14:40.857Z,100961.81
2022-07-26T00:17:07.557Z,100961.09
2022-07-26T00:19:33.995Z,100964.50
2022-07-26T00:22:19.206Z,100954.13
2022-07-26T00:24:45.662Z,100963.00
2022-07-26T00:27:12.094Z,100963.25
2022-07-26T00:29:38.540Z,100956.34
2022-07-26T00:32:05.389Z,100961.78
2022-07-26T00:34:31.970Z,100957.56
2022-07-26T00:36:58.409Z,100963.22
2022-07-26T00:39:24.999Z,100964.22
2022-07-26T00:41:51.531Z,100955.34
2022-07-26T00:44:18.027Z,100970.63
2022-07-26T00:46:44.775Z,100964.41
2022-07-26T00:49:12.287Z,100969.09
2022-07-26T00:51:39.440Z,100965.31
2022-07-26T00:54:06.759Z,100969.56
2022-07-26T00:56:34.045Z,100973.03
2022-07-26T00:59:00.813Z,100963.19
2022-07-26T01:01:27.481Z,100966.91
2022-07-26T01:03:54.454Z,100962.72
2022-07-26T01:06:26.995Z,100961.78
2022-07-26T01:08:53.998Z,100956.34
2022-07-26T01:11:20.429Z,100952.91
2022-07-26T01:13:48.812Z,100963.75
2022-07-26T01:16:15.437Z,100955.88
2022-07-26T01:18:41.956Z,100958.84
2022-07-26T01:21:13.833Z,100956.88
2022-07-26T01:23:41.224Z,100959.59
2022-07-26T01:26:07.722Z,100955.41
2022-07-26T01:28:39.332Z,100960.03
2022-07-26T01:31:06.521Z,100949.66
2022-07-26T01:33:34.556Z,100948.16
2022-07-26T01:36:01.711Z,100947.16
2022-07-26T01:38:28.528Z,100948.88
2022-07-26T01:40:54.998Z,100946.16
2022-07-26T01:43:21.459Z,100942.72
2022-07-26T01:45:48.086Z,100936.25
2022-07-26T01:48:14.743Z,100952.28
2022-07-26T01:50:41.346Z,100948.84
2022-07-26T01:53:07.942Z,100949.31
2022-07-26T01:55:35.112Z,100949.28
2022-07-26T01:58:01.614Z,100949.03
2022-07-26T02:00:29.068Z,100948.75
2022-07-26T02:02:55.578Z,100951.00
2022-07-26T02:05:22.218Z,100943.81
2022-07-26T02:07:48.922Z,100953.19
2022-07-26T02:10:17.260Z,100948.28
2022-07-26T02:12:44.290Z,100948.53
2022-07-26T02:15:11.989Z,100947.81
2022-07-26T02:17:38.439Z,100944.09
2022-07-26T02:20:05.918Z,100948.22
2022-07-26T02:22:32.360Z,100953.53
2022-07-26T02:25:04.513Z,100958.69
2022-07-26T02:27:31.745Z,100963.09
2022-07-26T02:29:58.205Z,100961.63
2022-07-26T02:32:24.659Z,100968.00
2022-07-26T02:34:51.098Z,100950.72
2022-07-26T02:37:17.560Z,100953.13
2022-07-26T02:39:44.006Z,100952.81
2022-07-26T02:42:10.557Z,100949.84
2022-07-26T02:44:37.157Z,100959.72
2022-07-26T02:47:03.652Z,100956.22
2022-07-26T02:49:30.114Z,100952.00
2022-07-26T02:51:56.537Z,100967.75
2022-07-26T02:54:23.065Z,100970.16
2022-07-26T02:56:49.471Z,100976.06
2022-07-26T02:59:15.957Z,100971.41
2022-07-26T03:01:42.436Z,100984.22
2022-07-26T03:04:09.255Z,100983.91
2022-07-26T03:06:35.974Z,100980.66
2022-07-26T03:09:02.662Z,100992.34
2022-07-26T03:11:29.081Z,100992.41
2022-07-26T03:13:55.523Z,100987.44
2022-07-26T03:16:24.886Z,100992.13
2022-07-26T03:18:55.333Z,100993.38
2022-07-26T03:21:21.791Z,100990.72
2022-07-26T03:23:48.288Z,100996.81
2022-07-26T03:26:15.563Z,100998.03
2022-07-26T03:28:42.619Z,100992.34
2022-07-26T03:31:09.188Z,100986.91
2022-07-26T03:33:35.755Z,100992.78
2022-07-26T03:36:02.259Z,100998.47
2022-07-26T03:38:29.004Z,101001.41
2022-07-26T03:40:55.421Z,100987.78
2022-07-26T03:43:23.428Z,100996.88
2022-07-26T03:45:50.650Z,101003.28
2022-07-26T03:48:17.182Z,101002.03
2022-07-26T03:50:43.660Z,101003.97
2022-07-26T03:53:10.125Z,100998.09
2022-07-26T03:55:55.309Z,101008.53
2022-07-26T03:58:21.963Z,101000.97
2022-07-26T04:00:48.406Z,101005.19
2022-07-26T04:03:15.030Z,101010.63
2022-07-26T04:05:48.630Z,101013.06
2022-07-26T04:08:16.018Z,101018.34
2022-07-26T04:10:46.076Z,101016.69
2022-07-26T04:13:12.511Z,101019.16
2022-07-26T04:15:38.972Z,101026.66
2022-07-26T04:18:05.399Z,101027.66
2022-07-26T04:20:31.890Z,101032.09
2022-07-26T04:22:58.317Z,101024.31
2022-07-26T04:25:24.951Z,101034.22
2022-07-26T04:27:51.407Z,101032.50
2022-07-26T04:30:18.091Z,101035.22
2022-07-26T04:32:46.632Z,101035.00
2022-07-26T04:35:13.806Z,101036.06
2022-07-26T04:37:41.298Z,101040.75
2022-07-26T04:40:08.697Z,101027.69
2022-07-26T04:42:35.426Z,101043.78
2022-07-26T04:45:07.756Z,101041.34
2022-07-26T04:47:34.854Z,101040.13
2022-07-26T04:50:01.778Z,101038.44
2022-07-26T04:52:28.207Z,101036.94
2022-07-26T04:54:54.692Z,101033.53
2022-07-26T04:57:21.122Z,101041.41
2022-07-26T04:59:58.134Z,101033.47
2022-07-26T05:02:34.180Z,101030.25
2022-07-26T05:05:00.656Z,101043.38
2022-07-26T05:07:27.072Z,101039.44
2022-07-26T05:09:53.949Z,101044.91
2022-07-26T05:12:20.366Z,101039.44
2022-07-26T05:14:46.842Z,101043.66
2022-07-26T05:17:13.589Z,101046.63
2022-07-26T05:19:48.967Z,101036.22
2022-07-26T05:22:15.713Z,101044.38
2022-07-26T05:24:42.188Z,101048.09
2022-07-26T05:27:08.627Z,101051.78
2022-07-26T05:29:35.078Z,101055.22
2022-07-26T05:32:01.707Z,101059.38
2022-07-26T05:34:28.142Z,101062.28
2022-07-26T05:36:54.583Z,101061.75
2022-07-26T05:39:21.029Z,101079.16
2022-07-26T05:41:47.478Z,101071.47
2022-07-26T05:44:15.290Z,101086.78
2022-07-26T05:46:41.751Z,101085.44
2022-07-26T05:49:08.436Z,101092.69
2022-07-26T05:51:35.126Z,101093.22
2022-07-26T05:54:01.535Z,101091.69
2022-07-26T05:56:27.962Z,101095.41
2022-07-26T05:58:54.391Z,101102.53
2022-07-26T06:01:20.833Z,101108.31
2022-07-26T06:03:49.163Z,101111.97
2022-07-26T06:06:15.628Z,101105.94
2022-07-26T06:08:42.051Z,101117.94
2022-07-26T06:11:08.555Z,101119.50
2022-07-26T06:13:34.981Z,101127.56
2022-07-26T06:16:01.403Z,101126.13
2022-07-26T06:18:27.828Z,101129.75
2022-07-26T06:20:54.447Z,101123.19
2022-07-26T06:23:30.876Z,101119.56
2022-07-26T06:26:01.436Z,101122.09
2022-07-26T06:28:27.907Z,101119.03
2022-07-26T06:30:54.327Z,101124.56
2022-07-26T06:33:20.747Z,101127.34
2022-07-26T06:35:47.154Z,101141.25
2022-07-26T06:38:13.666Z,101137.81
2022-07-26T06:40:40.121Z,101138.63
2022-07-26T06:43:06.574Z,101139.75
2022-07-26T06:45:34.008Z,101151.25
2022-07-26T06:48:00.729Z,101142.44
2022-07-26T06:50:27.173Z,101156.28
2022-07-26T06:52:53.655Z,101162.31
2022-07-26T06:55:20.075Z,101164.16
2022-07-26T06:57:49.952Z,101167.75
2022-07-26T07:00:17.740Z,101171.84
2022-07-26T07:02:44.208Z,101178.16
2022-07-26T07:05:11.961Z,101185.63
2022-07-26T07:07:38.638Z,101185.38
2022-07-26T07:10:05.943Z,101185.94
2022-07-26T07:12:32.799Z,101185.72
2022-07-26T07:14:59.250Z,101181.19
2022-07-26T07:17:25.716Z,101198.38
2022-07-26T07:19:52.162Z,101189.50
2022-07-26T07:22:18.583Z,101186.09
2022-07-26T07:24:45.012Z,101187.94
2022-07-26T07:27:13.112Z,101193.16
2022-07-26T07:29:43.330Z,101191.25
2022-07-26T07:32:18.232Z,101199.25
2022-07-26T07:34:48.111Z,101199.78
2022-07-26T07:37:15.453Z,101190.75
2022-07-26T07:39:42.193Z,101199.09
2022-07-26T07:42:08.839Z,101201.66
2022-07-26T07:44:35.275Z,101204.84
2022-07-26T07:47:01.859Z,101220.53
2022-07-26T07:49:28.466Z,101234.00
2022-07-26T07:51:54.946Z,101226.91
2022-07-26T07:54:22.318Z,101233.06
2022-07-26T07:56:49.011Z,101230.41
2022-07-26T07:59:15.461Z,101238.75
2022-07-26T08:01:42.657Z,101244.66
2022-07-26T08:04:11.584Z,101247.84
2022-07-26T08:06:38.200Z,101251.03
2022-07-26T08:09:07.736Z,101256.94
2022-07-26T08:11:34.660Z,101261.53
2022-07-26T08:14:01.652Z,101261.38
2022-07-26T08:16:28.167Z,101256.53
2022-07-26T08:19:07.806Z,101261.09
2022-07-26T08:21:35.426Z,101267.28
2022-07-26T08:24:02.467Z,101267.38
2022-07-26T08:26:28.918Z,101275.75
2022-07-26T08:28:59.602Z,101288.06
2022-07-26T08:31:27.658Z,101284.56
2022-07-26T08:33:54.228Z,101284.38
2022-07-26T08:36:20.677Z,101284.53
2022-07-26T08:38:47.737Z,101288.75
2022-07-26T08:41:15.060Z,101288.69
2022-07-26T08:43:51.907Z,101295.94
2022-07-26T08:46:25.188Z,101302.84
2022-07-26T08:48:53.124Z,101308.22
2022-07-26T08:51:20.290Z,101314.81
2022-07-26T08:53:47.708Z,101312.47
2022-07-26T08:56:14.235Z,101306.03
2022-07-26T08:58:42.056Z,101321.91
2022-07-26T09:01:12.705Z,101342.00
2022-07-26T09:03:39.856Z,101344.13
2022-07-26T09:06:14.332Z,101355.06
2022-07-26T09:08:40.815Z,101350.47
2022-07-26T09:11:30.032Z,101357.00
2022-07-26T09:13:59.477Z,101358.31
2022-07-26T09:16:26.293Z,101360.66
2022-07-26T09:18:53.429Z,101364.88
2022-07-26T09:21:36.270Z,101368.97
2022-07-26T09:24:02.975Z,101364.34
2022-07-26T09:26:29.412Z,101370.63
2022-07-26T09:29:25.214Z,101366.88
2022-07-26T09:31:51.715Z,101370.06
2022-07-26T09:34:25.609Z,101374.41
2022-07-26T09:36:54.364Z,101370.00
2022-07-26T09:39:22.759Z,101376.75
2022-07-26T09:42:26.714Z,101376.53
2022-07-26T09:44:54.810Z,101378.81
2022-07-26T09:47:21.692Z,101401.81
2022-07-26T09:49:48.584Z,101392.44
2022-07-26T09:52:17.479Z,101387.84
2022-07-26T09:54:46.753Z,101399.59
2022-07-26T09:57:16.350Z,101397.78
2022-07-26T09:59:42.821Z,101410.44
2022-07-26T10:02:10.214Z,101408.78
2022-07-26T10:04:36.755Z,101403.16
2022-07-26T10:07:03.882Z,101409.44
2022-07-26T10:09:41.097Z,101415.97
2022-07-26T10:12:09.067Z,101417.16
2022-07-26T10:14:48.291Z,101424.63
2022-07-26T10:17:29.015Z,101419.75
2022-07-26T10:19:58.436Z,101416.34
2022-07-26T10:22:27.664Z,101427.38
2022-07-26T10:24:58.233Z,101436.59
2022-07-26T10:27:41.342Z,101424.63
2022-07-26T10:30:20.046Z,101432.97
2022-07-26T10:33:03.741Z,101430.75
2022-07-26T10:35:36.389Z,101437.53
2022-07-26T10:38:22.070Z,101435.19
2022-07-26T10:41:00.306Z,101437.50
2022-07-26T10:43:43.202Z,101435.34
2022-07-26T10:46:15.914Z,101446.88
2022-07-26T10:49:06.488Z,101446.09
2022-07-26T10:51:38.757Z,101449.53
2022-07-26T10:54:05.160Z,101445.84
2022-07-26T10:56:33.658Z,101451.63
2022-07-26T10:59:01.126Z,101457.66
2022-07-26T11:01:35.297Z,101447.94
2022-07-26T11:04:01.969Z,101465.19
2022-07-26T11:06:30.185Z,101461.00
2022-07-26T11:08:56.803Z,101466.06
2022-07-26T11:11:31.063Z,101471.63
2022-07-26T11:14:11.860Z,101467.97
2022-07-26T11:16:47.499Z,101473.47
2022-07-26T11:19:21.018Z,101458.00
2022-07-26T11:21:54.499Z,101469.25
2022-07-26T11:24:22.096Z,101475.19
2022-07-26T11:26:48.932Z,101474.13
2022-07-26T11:29:17.203Z,101478.72
2022-07-26T11:31:50.555Z,101486.59
2022-07-26T11:34:28.712Z,101479.16
2022-07-26T11:36:57.403Z,101486.63
2022-07-26T11:39:24.545Z,101492.91
2022-07-26T11:41:53.077Z,101489.31
2022-07-26T11:44:21.719Z,101503.38
2022-07-26T11:46:49.402Z,101503.16
2022-07-26T11:49:18.678Z,101498.03
2022-07-26T11:51:53.315Z,101497.66
2022-07-26T11:54:24.106Z,101503.41
2022-07-26T11:56:54.709Z,101490.59
2022-07-26T11:59:21.720Z,101511.03
2022-07-26T12:01:49.798Z,101530.22
2022-07-26T12:04:27.905Z,101509.75
2022-07-26T12:06:55.644Z,101511.91
2022-07-26T12:09:36.672Z,101517.19
2022-07-26T12:12:12.338Z,101518.94
2022-07-26T12:14:39.797Z,101522.41
2022-07-26T12:17:18.572Z,101525.56
2022-07-26T12:19:45.664Z,101525.31
2022-07-26T12:22:20.759Z,101520.66
2022-07-26T12:24:53.360Z,101529.38
2022-07-26T12:27:25.340Z,101530.88
2022-07-26T12:29:54.727Z,101534.88
2022-07-26T12:32:23.357Z,101530.13
2022-07-26T12:35:09.206Z,101527.84
2022-07-26T12:37:48.178Z,101531.47
2022-07-26T12:40:23.526Z,101531.59
2022-07-26T12:42:49.885Z,101537.53
2022-07-26T12:45:18.446Z,101531.97
2022-07-26T12:47:47.442Z,101524.34
2022-07-26T12:50:14.912Z,101528.09
2022-07-26T12:52:42.252Z,101537.47
2022-07-26T12:55:15.196Z,101530.97
2022-07-26T12:57:46.240Z,101541.28
2022-07-26T13:00:15.789Z,101536.44
2022-07-26T13:02:43.699Z,101542.53
2022-07-26T13:05:11.542Z,101531.63
2022-07-26T13:07:38.623Z,101529.84
2022-07-26T13:10:36.135Z,101526.97
2022-07-26T13:12:52.809Z,101525.72
2022-07-26T13:15:19.269Z,101531.19
2022-07-26T13:17:45.883Z,101543.03
2022-07-26T13:20:12.394Z,101533.50
2022-07-26T13:22:39.720Z,101542.28
2022-07-26T13:25:08.759Z,101536.75
2022-07-26T13:27:36.143Z,101538.13
2022-07-26T13:30:05.134Z,101543.22
2022-07-26T13:32:31.587Z,101539.59
2022-07-26T13:34:58.030Z,101552.56
2022-07-26T13:37:24.948Z,101545.25
2022-07-26T13:39:51.428Z,101538.25
2022-07-26T13:42:19.314Z,101553.66
2022-07-26T13:44:45.963Z,101542.44
2022-07-26T13:47:12.535Z,101536.91
2022-07-26T13:49:39.057Z,101554.56
2022-07-26T13:52:05.849Z,101553.28
2022-07-26T13:54:34.609Z,101549.09
2022-07-26T13:57:03.061Z,101548.50
2022-07-26T13:59:29.694Z,101554.75
2022-07-26T14:01:56.509Z,101548.00
2022-07-26T14:04:23.869Z,101551.53
2022-07-26T14:06:50.615Z,101553.34
2022-07-26T14:09:17.982Z,101554.78
2022-07-26T14:11:45.245Z,101554.91
2022-07-26T14:14:12.423Z,101553.78
2022-07-26T14:16:39.619Z,101551.78
2022-07-26T14:19:06.548Z,101555.03
2022-07-26T14:21:43.560Z,101561.75
2022-07-26T14:24:21.057Z,101563.56
2022-07-26T14:26:47.660Z,101559.28
2022-07-26T14:29:14.249Z,101557.75
2022-07-26T14:31:40.988Z,101561.91
2022-07-26T14:34:07.631Z,101566.38
2022-07-26T14:36:34.231Z,101566.72
2022-07-26T14:39:00.875Z,101568.94
2022-07-26T14:41:27.575Z,101571.06
2022-07-26T14:43:55.826Z,101570.63
2022-07-26T14:46:22.569Z,101569.66
2022-07-26T14:48:54.399Z,101571.53
2022-07-26T14:51:21.547Z,101576.03
2022-07-26T14:53:48.002Z,101577.72
2022-07-26T14:56:14.693Z,101581.53
2022-07-26T14:58:41.155Z,101570.94
2022-07-26T15:01:07.927Z,101579.09
2022-07-26T15:03:34.619Z,101579.28
2022-07-26T15:06:01.072Z,101583.53
2022-07-26T15:08:27.564Z,101579.41
2022-07-26T15:10:54.095Z,101579.72
2022-07-26T15:13:20.613Z,101576.38
2022-07-26T15:15:47.573Z,101596.06
2022-07-26T15:18:14.036Z,101585.44
2022-07-26T15:20:41.973Z,101577.75
2022-07-26T15:23:09.681Z,101581.06
2022-07-26T15:25:38.417Z,101576.94
2022-07-26T15:28:05.416Z,101589.28
2022-07-26T15:30:35.615Z,101595.00
2022-07-26T15:33:02.158Z,101587.41
2022-07-26T15:35:29.596Z,101585.22
2022-07-26T15:37:56.483Z,101583.38
2022-07-26T15:40:23.152Z,101579.94
2022-07-26T15:42:51.938Z,101589.88
2022-07-26T15:45:20.219Z,101584.59
2022-07-26T15:48:03.183Z,101578.59
2022-07-26T15:50:35.062Z,101572.09
2022-07-26T15:53:01.571Z,101579.34
2022-07-26T15:55:28.253Z,101581.22
2022-07-26T15:57:54.852Z,101582.34
2022-07-26T16:00:21.460Z,101575.09
2022-07-26T16:02:48.039Z,101595.56
2022-07-26T16:05:14.975Z,101590.56
2022-07-26T16:07:42.229Z,101581.22
2022-07-26T16:10:10.563Z,101585.75
2022-07-26T16:12:37.141Z,101587.00
2022-07-26T16:15:04.905Z,101581.56
2022-07-26T16:17:31.406Z,101586.59
2022-07-26T16:19:57.898Z,101586.44
2022-07-26T16:22:24.616Z,101579.03
2022-07-26T16:24:51.187Z,101590.50
2022-07-26T16:27:17.755Z,101589.88
2022-07-26T16:29:46.782Z,101588.75
2022-07-26T16:32:15.567Z,101582.78
2022-07-26T16:34:42.759Z,101587.88
2022-07-26T16:37:09.249Z,101579.06
2022-07-26T16:39:35.672Z,101583.03
2022-07-26T16:42:06.882Z,101580.75
2022-07-26T16:44:33.651Z,101581.28
2022-07-26T16:47:00.222Z,101582.63
2022-07-26T16:49:26.824Z,101588.72
2022-07-26T16:51:53.350Z,101586.63
2022-07-26T16:54:20.942Z,101606.31
2022-07-26T16:56:47.572Z,101605.03
2022-07-26T16:59:14.401Z,101597.09
2022-07-26T17:01:41.403Z,101591.19
2022-07-26T17:04:09.962Z,101595.56
2022-07-26T17:06:36.511Z,101598.16
2022-07-26T17:09:03.405Z,101603.09
2022-07-26T17:11:29.903Z,101593.16
2022-07-26T17:13:56.370Z,101593.25
2022-07-26T17:16:25.101Z,101599.75
2022-07-26T17:18:54.062Z,101593.34
2022-07-26T17:21:21.140Z,101593.97
2022-07-26T17:23:48.769Z,101593.34
2022-07-26T17:26:16.325Z,101594.50
2022-07-26T17:28:42.942Z,101603.16
2022-07-26T17:31:09.756Z,101591.56
2022-07-26T17:33:36.204Z,101594.13
2022-07-26T17:36:18.963Z,101599.78
2022-07-26T17:38:46.912Z,101585.63
2022-07-26T17:41:18.303Z,101609.81
2022-07-26T17:43:47.378Z,101605.09
2022-07-26T17:46:13.954Z,101613.34
2022-07-26T17:48:41.755Z,101599.03
2022-07-26T17:51:08.271Z,101596.50
2022-07-26T17:53:34.930Z,101602.97
2022-07-26T17:56:02.245Z,101605.28
2022-07-26T17:58:28.797Z,101604.47
2022-07-26T18:00:55.331Z,101612.09
2022-07-26T18:03:23.111Z,101600.72
2022-07-26T18:05:50.286Z,101608.03
2022-07-26T18:08:17.099Z,101604.19
2022-07-26T18:10:46.444Z,101607.25
2022-07-26T18:13:15.510Z,101610.81
2022-07-26T18:15:42.062Z,101610.44
2022-07-26T18:18:08.745Z,101613.63
2022-07-26T18:20:35.187Z,101613.72
2022-07-26T18:23:02.700Z,101613.06
2022-07-26T18:25:29.773Z,101610.25
2022-07-26T18:27:56.287Z,101614.94
2022-07-26T18:30:22.732Z,101614.19
2022-07-26T18:32:49.182Z,101626.03
2022-07-26T18:35:15.724Z,101616.97
2022-07-26T18:37:42.279Z,101616.56
2022-07-26T18:40:09.077Z,101629.94
2022-07-26T18:42:36.229Z,101622.34
2022-07-26T18:45:02.730Z,101625.69
2022-07-26T18:47:29.468Z,101622.13
2022-07-26T18:49:55.990Z,101615.28
2022-07-26T18:52:31.687Z,101612.13
2022-07-26T18:54:59.610Z,101616.63
2022-07-26T18:57:26.087Z,101609.63
2022-07-26T18:59:52.526Z,101620.66
2022-07-26T19:02:19.036Z,101622.50
2022-07-26T19:04:45.466Z,101611.41
2022-07-26T19:07:12.065Z,101620.78
2022-07-26T19:09:38.566Z,101631.16
2022-07-26T19:12:05.162Z,101624.22
2022-07-26T19:14:31.626Z,101613.06
2022-07-26T19:16:58.406Z,101618.91
2022-07-26T19:19:24.954Z,101631.66
2022-07-26T19:21:51.418Z,101624.31
2022-07-26T19:24:18.000Z,101629.75
2022-07-26T19:26:44.587Z,101639.84
2022-07-26T19:29:11.237Z,101637.88
2022-07-26T19:31:40.356Z,101639.53
2022-07-26T19:34:06.915Z,101646.13
2022-07-26T19:36:33.388Z,101648.41
2022-07-26T19:39:01.231Z,101647.47
2022-07-26T19:41:27.793Z,101645.38
2022-07-26T19:43:54.312Z,101647.94
2022-07-26T19:46:20.823Z,101656.81
2022-07-26T19:48:47.428Z,101649.88
2022-07-26T19:51:13.911Z,101657.69
2022-07-26T19:53:40.414Z,101659.50
2022-07-26T19:56:07.803Z,101659.06
2022-07-26T19:58:34.299Z,101663.53
2022-07-26T20:01:01.064Z,101658.59
2022-07-26T20:03:27.709Z,101677.41
2022-07-26T20:05:55.652Z,101671.44
2022-07-26T20:08:22.190Z,101665.28
2022-07-26T20:10:48.614Z,101678.19
2022-07-26T20:13:15.180Z,101674.94
2022-07-26T20:15:41.909Z,101667.53
2022-07-26T20:18:08.931Z,101678.88
2022-07-26T20:20:35.539Z,101675.47
2022-07-26T20:23:04.079Z,101676.81
2022-07-26T20:25:32.078Z,101677.28
2022-07-26T20:27:58.575Z,101687.22
2022-07-26T20:30:25.298Z,101682.13
2022-07-26T20:32:51.765Z,101693.28
2022-07-26T20:35:18.265Z,101684.63
2022-07-26T20:37:44.889Z,101687.09
2022-07-26T20:40:12.345Z,101685.56
2022-07-26T20:42:42.057Z,101697.47
2022-07-26T20:45:12.900Z,101686.47
2022-07-26T20:47:43.048Z,101695.06
2022-07-26T20:50:10.767Z,101692.66
2022-07-26T20:52:37.500Z,101686.50
2022-07-26T20:55:04.438Z,101690.09
2022-07-26T20:57:30.949Z,101692.66
2022-07-26T20:59:57.396Z,101686.75
2022-07-26T21:02:23.962Z,101692.78
2022-07-26T21:04:50.582Z,101701.75
2022-07-26T21:07:17.110Z,101701.16
2022-07-26T21:09:43.563Z,101695.75
2022-07-26T21:12:10.122Z,101698.78
2022-07-26T21:14:36.577Z,101699.53
2022-07-26T21:17:06.659Z,101701.66
2022-07-26T21:19:36.030Z,101700.34
2022-07-26T21:22:02.472Z,101702.94
2022-07-26T21:24:29.061Z,101708.09
2022-07-26T21:26:55.624Z,101704.97
2022-07-26T21:29:22.543Z,101705.66
2022-07-26T21:31:49.125Z,101701.19
2022-07-26T21:34:15.583Z,101702.69
2022-07-26T21:36:42.120Z,101706.88
2022-07-26T21:39:09.128Z,101715.59
2022-07-26T21:41:36.115Z,101706.28
2022-07-26T21:44:03.962Z,101706.09
2022-07-26T21:46:30.641Z,101711.94
2022-07-26T21:48:57.282Z,101709.50
2022-07-26T21:51:23.767Z,101705.41
2022-07-26T21:53:50.333Z,101708.09
2022-07-26T21:56:16.781Z,101708.81
2022-07-26T21:58:43.240Z,101707.66
2022-07-26T22:01:12.001Z,101707.78
2022-07-26T22:03:39.499Z,101703.41
2022-07-26T22:06:06.797Z,101709.47
2022-07-26T22:08:33.722Z,101716.75
2022-07-26T22:11:00.384Z,101711.22
2022-07-26T22:13:27.140Z,101710.00
2022-07-26T22:15:53.548Z,101710.72
2022-07-26T22:18:20.420Z,101709.69
2022-07-26T22:20:50.324Z,101711.09
2022-07-26T22:23:17.759Z,101711.09
2022-07-26T22:25:44.534Z,101713.22
2022-07-26T22:28:11.963Z,101714.72
2022-07-26T22:30:44.360Z,101712.88
2022-07-26T22:33:11.839Z,101713.88
2022-07-26T22:35:38.747Z,101712.19
2022-07-26T22:38:08.259Z,101713.75
2022-07-26T22:40:35.114Z,101713.13
2022-07-26T22:43:01.664Z,101722.75
2022-07-26T22:45:29.188Z,101712.84
2022-07-26T22:47:56.646Z,101707.78
2022-07-26T22:50:24.800Z,101712.63
2022-07-26T22:52:52.240Z,101703.69
2022-07-26T22:55:18.928Z,101710.13
2022-07-26T22:57:45.600Z,101711.13
2022-07-26T23:00:15.458Z,101714.25
2022-07-26T23:02:41.936Z,101713.47
2022-07-26T23:05:09.338Z,101718.84
2022-07-26T23:07:37.027Z,101714.31
2022-07-26T23:10:04.788Z,101714.25
2022-07-26T23:12:31.275Z,101711.25
2022-07-26T23:14:57.930Z,101711.63
2022-07-26T23:17:24.382Z,101710.75
2022-07-26T23:19:51.213Z,101704.84
2022-07-26T23:22:17.685Z,101706.84
2022-07-26T23:24:44.650Z,101700.19
2022-07-26T23:27:14.283Z,101704.25
2022-07-26T23:29:43.303Z,101707.09
2022-07-26T23:32:12.474Z,101700.06
2022-07-26T23:34:39.070Z,101705.09
2022-07-26T23:37:05.543Z,101701.09
2022-07-26T23:39:31.985Z,101705.34
2022-07-26T23:41:58.665Z,101705.13
2022-07-26T23:44:25.123Z,101709.75
2022-07-26T23:46:51.622Z,101707.22
2022-07-26T23:49:18.298Z,101702.09
2022-07-26T23:51:44.924Z,101706.25
2022-07-26T23:54:11.374Z,101700.19
2022-07-26T23:56:37.850Z,101696.53
2022-07-26T23:59:04.603Z,101703.47
